BUY weather

Bunbury Airport
Western Australia, Australia

Public forecast

Using degrees Celsius for public forecast. Weather courtesy of forecast.io.

Closest aviation weather report (METAR) to Bunbury Airport

Closest report is Perth Jandakot Airport, 77.6 nm (143.7 km) N. Retrieved 2019/10/23 04:44 UTC (8 minutes ago):

YPJT 230444Z AUTO 25014KT 5000 DZ SCT013 SCT020 BKN028 19/17 Q1016

Closest aviation forecast (TAF) to Bunbury Airport

Closest forecast is Perth Jandakot Airport, 77.6 nm (143.7 km) N. Retrieved 2019-10-23 00:00 UTC (5 hours ago):

TAF YPJT 222244Z 2300/2318 25005KT 9999 SCT020 FM230100 27012KT 9999 SCT030 FM230600 27014KT 9999 -SHRA FEW015 BKN030 FM230900 21012KT 9999 -SHRA BKN030 FM231300 21011KT 9999 NSW SCT030 INTER 2307/2311 4000 SHRA BKN010